sensor_id;sensor_type;location;lat;lon;timestamp;P1;durP1;ratioP1;P2;durP2;ratioP2
48993;SDS011;34804;49.214;12.276;2022-10-28T00:01:19;21.73;;;7.88;;
48993;SDS011;34804;49.214;12.276;2022-10-28T00:03:49;19.38;;;8.57;;
48993;SDS011;34804;49.214;12.276;2022-10-28T00:06:20;22.08;;;8.13;;
48993;SDS011;34804;49.214;12.276;2022-10-28T00:08:59;37.40;;;9.23;;
48993;SDS011;34804;49.214;12.276;2022-10-28T00:11:30;31.10;;;9.15;;
48993;SDS011;34804;49.214;12.276;2022-10-28T00:14:00;27.67;;;7.75;;
48993;SDS011;34804;49.214;12.276;2022-10-28T00:16:30;29.45;;;8.27;;
48993;SDS011;34804;49.214;12.276;2022-10-28T00:18:59;32.17;;;9.00;;
48993;SDS011;34804;49.214;12.276;2022-10-28T00:21:28;44.80;;;9.43;;
48993;SDS011;34804;49.214;12.276;2022-10-28T00:23:56;28.30;;;9.35;;
48993;SDS011;34804;49.214;12.276;2022-10-28T00:26:27;35.40;;;10.18;;
48993;SDS011;34804;49.214;12.276;2022-10-28T00:28:57;43.33;;;9.82;;
48993;SDS011;34804;49.214;12.276;2022-10-28T00:31:45;27.25;;;9.32;;
48993;SDS011;34804;49.214;12.276;2022-10-28T00:34:16;24.27;;;8.77;;
48993;SDS011;34804;49.214;12.276;2022-10-28T00:36:45;26.35;;;8.77;;
48993;SDS011;34804;49.214;12.276;2022-10-28T00:39:13;27.73;;;8.02;;
48993;SDS011;34804;49.214;12.276;2022-10-28T00:41:44;19.38;;;7.90;;
48993;SDS011;34804;49.214;12.276;2022-10-28T00:49:56;19.58;;;8.23;;
48993;SDS011;34804;49.214;12.276;2022-10-28T00:52:35;15.50;;;8.00;;
48993;SDS011;34804;49.214;12.276;2022-10-28T00:55:02;21.65;;;8.95;;
48993;SDS011;34804;49.214;12.276;2022-10-28T00:57:32;18.60;;;9.65;;
48993;SDS011;34804;49.214;12.276;2022-10-28T01:00:03;24.95;;;10.38;;
48993;SDS011;34804;49.214;12.276;2022-10-28T01:02:33;21.92;;;9.60;;
48993;SDS011;34804;49.214;12.276;2022-10-28T01:05:08;31.30;;;9.93;;
48993;SDS011;34804;49.214;12.276;2022-10-28T01:07:38;26.25;;;9.60;;
48993;SDS011;34804;49.214;12.276;2022-10-28T01:10:05;28.85;;;8.13;;
48993;SDS011;34804;49.214;12.276;2022-10-28T01:24:04;22.80;;;8.95;;
48993;SDS011;34804;49.214;12.276;2022-10-28T01:34:22;22.50;;;8.88;;
48993;SDS011;34804;49.214;12.276;2022-10-28T01:39:49;13.85;;;7.30;;
48993;SDS011;34804;49.214;12.276;2022-10-28T01:42:26;15.50;;;7.63;;
48993;SDS011;34804;49.214;12.276;2022-10-28T01:53:17;15.48;;;8.05;;
48993;SDS011;34804;49.214;12.276;2022-10-28T01:55:48;14.65;;;7.20;;
48993;SDS011;34804;49.214;12.276;2022-10-28T01:58:18;14.15;;;6.95;;
48993;SDS011;34804;49.214;12.276;2022-10-28T02:00:49;14.80;;;6.60;;
48993;SDS011;34804;49.214;12.276;2022-10-28T02:03:16;13.95;;;7.15;;
48993;SDS011;34804;49.214;12.276;2022-10-28T02:05:47;12.40;;;7.00;;
48993;SDS011;34804;49.214;12.276;2022-10-28T02:11:06;15.65;;;7.38;;
48993;SDS011;34804;49.214;12.276;2022-10-28T02:22:06;17.92;;;8.60;;
48993;SDS011;34804;49.214;12.276;2022-10-28T02:24:53;17.73;;;9.55;;
48993;SDS011;34804;49.214;12.276;2022-10-28T02:30:27;15.70;;;8.65;;
48993;SDS011;34804;49.214;12.276;2022-10-28T02:33:01;16.33;;;9.23;;
48993;SDS011;34804;49.214;12.276;2022-10-28T02:35:51;18.35;;;9.52;;
48993;SDS011;34804;49.214;12.276;2022-10-28T02:38:31;15.98;;;9.13;;
48993;SDS011;34804;49.214;12.276;2022-10-28T02:41:05;15.55;;;9.30;;
48993;SDS011;34804;49.214;12.276;2022-10-28T02:43:38;15.80;;;8.82;;
48993;SDS011;34804;49.214;12.276;2022-10-28T02:46:09;16.52;;;8.75;;
48993;SDS011;34804;49.214;12.276;2022-10-28T02:48:39;16.55;;;8.38;;
48993;SDS011;34804;49.214;12.276;2022-10-28T02:51:10;21.65;;;7.95;;
48993;SDS011;34804;49.214;12.276;2022-10-28T02:56:39;17.08;;;8.15;;
48993;SDS011;34804;49.214;12.276;2022-10-28T02:59:14;20.40;;;8.70;;
48993;SDS011;34804;49.214;12.276;2022-10-28T03:01:41;16.73;;;8.63;;
48993;SDS011;34804;49.214;12.276;2022-10-28T03:04:08;16.60;;;8.50;;
48993;SDS011;34804;49.214;12.276;2022-10-28T03:06:35;20.08;;;9.30;;
48993;SDS011;34804;49.214;12.276;2022-10-28T03:09:01;16.92;;;9.05;;
48993;SDS011;34804;49.214;12.276;2022-10-28T03:11:28;17.67;;;9.50;;
48993;SDS011;34804;49.214;12.276;2022-10-28T03:13:55;18.55;;;9.77;;
48993;SDS011;34804;49.214;12.276;2022-10-28T03:16:22;19.33;;;9.32;;
48993;SDS011;34804;49.214;12.276;2022-10-28T03:18:49;16.85;;;8.82;;
48993;SDS011;34804;49.214;12.276;2022-10-28T03:21:15;17.85;;;8.98;;
48993;SDS011;34804;49.214;12.276;2022-10-28T03:23:42;17.27;;;8.68;;
48993;SDS011;34804;49.214;12.276;2022-10-28T03:26:09;14.63;;;8.20;;
48993;SDS011;34804;49.214;12.276;2022-10-28T03:28:36;14.20;;;6.97;;
48993;SDS011;34804;49.214;12.276;2022-10-28T03:31:03;13.43;;;7.93;;
48993;SDS011;34804;49.214;12.276;2022-10-28T03:33:30;14.73;;;7.30;;
48993;SDS011;34804;49.214;12.276;2022-10-28T03:35:56;16.08;;;7.65;;
48993;SDS011;34804;49.214;12.276;2022-10-28T03:38:23;15.10;;;7.63;;
48993;SDS011;34804;49.214;12.276;2022-10-28T03:40:50;19.10;;;8.27;;
48993;SDS011;34804;49.214;12.276;2022-10-28T03:43:17;20.75;;;8.60;;
48993;SDS011;34804;49.214;12.276;2022-10-28T03:45:44;15.48;;;8.07;;
48993;SDS011;34804;49.214;12.276;2022-10-28T03:48:11;18.15;;;8.18;;
48993;SDS011;34804;49.214;12.276;2022-10-28T03:50:38;16.88;;;8.40;;
48993;SDS011;34804;49.214;12.276;2022-10-28T03:53:04;17.50;;;7.75;;
48993;SDS011;34804;49.214;12.276;2022-10-28T03:55:32;14.85;;;7.72;;
48993;SDS011;34804;49.214;12.276;2022-10-28T03:57:59;12.32;;;8.18;;
48993;SDS011;34804;49.214;12.276;2022-10-28T04:00:27;14.65;;;8.13;;
48993;SDS011;34804;49.214;12.276;2022-10-28T04:02:54;12.52;;;7.47;;
48993;SDS011;34804;49.214;12.276;2022-10-28T04:05:22;12.10;;;7.10;;
48993;SDS011;34804;49.214;12.276;2022-10-28T04:07:49;15.85;;;7.40;;
48993;SDS011;34804;49.214;12.276;2022-10-28T04:10:15;14.43;;;8.38;;
48993;SDS011;34804;49.214;12.276;2022-10-28T04:12:42;16.45;;;8.95;;
48993;SDS011;34804;49.214;12.276;2022-10-28T04:15:09;16.58;;;9.32;;
48993;SDS011;34804;49.214;12.276;2022-10-28T04:17:36;19.10;;;10.50;;
48993;SDS011;34804;49.214;12.276;2022-10-28T04:20:03;17.33;;;9.43;;
48993;SDS011;34804;49.214;12.276;2022-10-28T04:22:30;15.77;;;8.73;;
48993;SDS011;34804;49.214;12.276;2022-10-28T04:24:57;15.00;;;8.10;;
48993;SDS011;34804;49.214;12.276;2022-10-28T04:27:23;13.70;;;8.05;;
48993;SDS011;34804;49.214;12.276;2022-10-28T04:29:50;13.52;;;7.75;;
48993;SDS011;34804;49.214;12.276;2022-10-28T04:32:17;14.90;;;8.15;;
48993;SDS011;34804;49.214;12.276;2022-10-28T04:34:44;14.75;;;7.28;;
48993;SDS011;34804;49.214;12.276;2022-10-28T04:37:10;17.92;;;8.43;;
48993;SDS011;34804;49.214;12.276;2022-10-28T04:39:41;16.88;;;8.13;;
48993;SDS011;34804;49.214;12.276;2022-10-28T04:42:07;17.35;;;9.02;;
48993;SDS011;34804;49.214;12.276;2022-10-28T04:44:34;17.33;;;8.32;;
48993;SDS011;34804;49.214;12.276;2022-10-28T04:47:01;16.63;;;8.30;;
48993;SDS011;34804;49.214;12.276;2022-10-28T04:49:28;20.20;;;7.53;;
48993;SDS011;34804;49.214;12.276;2022-10-28T04:51:54;16.05;;;7.63;;
48993;SDS011;34804;49.214;12.276;2022-10-28T04:54:22;16.55;;;7.35;;
48993;SDS011;34804;49.214;12.276;2022-10-28T04:56:48;14.18;;;6.88;;
48993;SDS011;34804;49.214;12.276;2022-10-28T04:59:15;12.57;;;7.00;;
48993;SDS011;34804;49.214;12.276;2022-10-28T05:01:42;14.02;;;6.53;;
48993;SDS011;34804;49.214;12.276;2022-10-28T05:04:09;18.05;;;6.95;;
48993;SDS011;34804;49.214;12.276;2022-10-28T05:06:36;13.23;;;7.28;;
48993;SDS011;34804;49.214;12.276;2022-10-28T05:09:03;14.43;;;6.70;;
48993;SDS011;34804;49.214;12.276;2022-10-28T05:11:30;12.00;;;6.25;;
48993;SDS011;34804;49.214;12.276;2022-10-28T05:13:56;10.75;;;6.40;;
48993;SDS011;34804;49.214;12.276;2022-10-28T05:16:23;14.45;;;6.43;;
48993;SDS011;34804;49.214;12.276;2022-10-28T05:18:50;13.20;;;5.95;;
48993;SDS011;34804;49.214;12.276;2022-10-28T05:21:17;12.82;;;6.72;;
48993;SDS011;34804;49.214;12.276;2022-10-28T05:23:44;12.52;;;6.28;;
48993;SDS011;34804;49.214;12.276;2022-10-28T05:26:12;11.60;;;6.05;;
48993;SDS011;34804;49.214;12.276;2022-10-28T05:28:39;12.82;;;6.88;;
48993;SDS011;34804;49.214;12.276;2022-10-28T05:31:06;17.38;;;7.20;;
48993;SDS011;34804;49.214;12.276;2022-10-28T05:33:33;19.83;;;8.98;;
48993;SDS011;34804;49.214;12.276;2022-10-28T05:36:00;15.98;;;7.55;;
48993;SDS011;34804;49.214;12.276;2022-10-28T05:38:28;13.27;;;7.55;;
48993;SDS011;34804;49.214;12.276;2022-10-28T05:40:54;17.58;;;7.47;;
48993;SDS011;34804;49.214;12.276;2022-10-28T05:43:21;14.50;;;7.45;;
48993;SDS011;34804;49.214;12.276;2022-10-28T05:45:52;16.80;;;8.75;;
48993;SDS011;34804;49.214;12.276;2022-10-28T05:48:20;19.95;;;8.98;;
48993;SDS011;34804;49.214;12.276;2022-10-28T05:50:47;14.63;;;8.70;;
48993;SDS011;34804;49.214;12.276;2022-10-28T05:53:14;18.55;;;9.63;;
48993;SDS011;34804;49.214;12.276;2022-10-28T05:55:41;20.50;;;11.13;;
48993;SDS011;34804;49.214;12.276;2022-10-28T05:58:13;16.75;;;10.60;;
48993;SDS011;34804;49.214;12.276;2022-10-28T06:00:40;20.23;;;10.63;;
48993;SDS011;34804;49.214;12.276;2022-10-28T06:03:07;22.90;;;11.15;;
48993;SDS011;34804;49.214;12.276;2022-10-28T06:05:38;21.02;;;12.55;;
48993;SDS011;34804;49.214;12.276;2022-10-28T06:08:07;18.23;;;10.60;;
48993;SDS011;34804;49.214;12.276;2022-10-28T06:10:35;23.40;;;10.15;;
48993;SDS011;34804;49.214;12.276;2022-10-28T06:13:02;17.63;;;9.52;;
48993;SDS011;34804;49.214;12.276;2022-10-28T06:15:29;17.02;;;9.20;;
48993;SDS011;34804;49.214;12.276;2022-10-28T06:17:56;20.52;;;9.80;;
48993;SDS011;34804;49.214;12.276;2022-10-28T06:20:23;16.52;;;8.52;;
48993;SDS011;34804;49.214;12.276;2022-10-28T06:22:51;16.77;;;9.00;;
48993;SDS011;34804;49.214;12.276;2022-10-28T06:25:20;14.07;;;7.68;;
48993;SDS011;34804;49.214;12.276;2022-10-28T06:27:51;13.82;;;8.18;;
48993;SDS011;34804;49.214;12.276;2022-10-28T06:30:20;14.38;;;7.35;;
48993;SDS011;34804;49.214;12.276;2022-10-28T06:32:47;14.18;;;7.63;;
48993;SDS011;34804;49.214;12.276;2022-10-28T06:35:14;15.82;;;8.07;;
48993;SDS011;34804;49.214;12.276;2022-10-28T06:37:41;16.77;;;7.93;;
48993;SDS011;34804;49.214;12.276;2022-10-28T06:40:08;15.63;;;8.05;;
48993;SDS011;34804;49.214;12.276;2022-10-28T06:42:35;15.75;;;7.97;;
48993;SDS011;34804;49.214;12.276;2022-10-28T06:45:02;15.77;;;7.97;;
48993;SDS011;34804;49.214;12.276;2022-10-28T06:47:30;14.18;;;7.63;;
48993;SDS011;34804;49.214;12.276;2022-10-28T06:49:57;14.55;;;6.70;;
48993;SDS011;34804;49.214;12.276;2022-10-28T06:52:23;16.48;;;6.90;;
48993;SDS011;34804;49.214;12.276;2022-10-28T06:54:50;11.77;;;6.18;;
48993;SDS011;34804;49.214;12.276;2022-10-28T06:57:17;19.63;;;7.15;;
48993;SDS011;34804;49.214;12.276;2022-10-28T06:59:43;13.13;;;6.10;;
48993;SDS011;34804;49.214;12.276;2022-10-28T07:02:10;15.45;;;8.85;;
48993;SDS011;34804;49.214;12.276;2022-10-28T07:04:37;21.48;;;9.77;;
48993;SDS011;34804;49.214;12.276;2022-10-28T07:07:04;15.95;;;8.20;;
48993;SDS011;34804;49.214;12.276;2022-10-28T07:09:31;14.05;;;8.40;;
48993;SDS011;34804;49.214;12.276;2022-10-28T07:11:58;19.17;;;10.07;;
48993;SDS011;34804;49.214;12.276;2022-10-28T07:14:30;15.77;;;10.07;;
48993;SDS011;34804;49.214;12.276;2022-10-28T07:16:57;17.85;;;10.40;;
48993;SDS011;34804;49.214;12.276;2022-10-28T07:19:24;15.60;;;8.50;;
48993;SDS011;34804;49.214;12.276;2022-10-28T07:21:50;14.13;;;7.82;;
48993;SDS011;34804;49.214;12.276;2022-10-28T07:24:17;15.20;;;8.13;;
48993;SDS011;34804;49.214;12.276;2022-10-28T07:26:46;16.30;;;8.45;;
48993;SDS011;34804;49.214;12.276;2022-10-28T07:29:19;17.40;;;10.32;;
48993;SDS011;34804;49.214;12.276;2022-10-28T07:31:46;16.48;;;10.23;;
48993;SDS011;34804;49.214;12.276;2022-10-28T07:34:13;17.02;;;9.43;;
48993;SDS011;34804;49.214;12.276;2022-10-28T07:36:39;19.23;;;8.82;;
48993;SDS011;34804;49.214;12.276;2022-10-28T07:39:06;15.50;;;8.80;;
48993;SDS011;34804;49.214;12.276;2022-10-28T07:41:35;19.48;;;8.77;;
48993;SDS011;34804;49.214;12.276;2022-10-28T07:44:02;15.70;;;9.52;;
48993;SDS011;34804;49.214;12.276;2022-10-28T07:46:29;19.33;;;10.18;;
48993;SDS011;34804;49.214;12.276;2022-10-28T07:48:56;22.55;;;11.55;;
48993;SDS011;34804;49.214;12.276;2022-10-28T07:51:23;20.05;;;10.98;;
48993;SDS011;34804;49.214;12.276;2022-10-28T07:53:49;23.77;;;11.13;;
48993;SDS011;34804;49.214;12.276;2022-10-28T07:56:16;20.40;;;9.80;;
48993;SDS011;34804;49.214;12.276;2022-10-28T07:58:43;14.48;;;9.38;;
48993;SDS011;34804;49.214;12.276;2022-10-28T08:01:13;17.25;;;9.52;;
48993;SDS011;34804;49.214;12.276;2022-10-28T08:03:42;20.80;;;12.32;;
48993;SDS011;34804;49.214;12.276;2022-10-28T08:06:11;26.05;;;12.95;;
48993;SDS011;34804;49.214;12.276;2022-10-28T08:11:12;24.35;;;10.90;;
48993;SDS011;34804;49.214;12.276;2022-10-28T08:13:41;21.38;;;9.98;;
48993;SDS011;34804;49.214;12.276;2022-10-28T08:16:08;15.68;;;9.88;;
48993;SDS011;34804;49.214;12.276;2022-10-28T08:18:36;18.05;;;10.02;;
48993;SDS011;34804;49.214;12.276;2022-10-28T08:21:04;19.65;;;9.52;;
48993;SDS011;34804;49.214;12.276;2022-10-28T08:23:33;18.27;;;9.02;;
48993;SDS011;34804;49.214;12.276;2022-10-28T08:26:00;21.27;;;11.55;;
48993;SDS011;34804;49.214;12.276;2022-10-28T08:28:27;22.50;;;12.20;;
48993;SDS011;34804;49.214;12.276;2022-10-28T08:31:01;17.98;;;10.63;;
48993;SDS011;34804;49.214;12.276;2022-10-28T08:33:37;18.02;;;10.38;;
48993;SDS011;34804;49.214;12.276;2022-10-28T08:36:08;18.88;;;10.20;;
48993;SDS011;34804;49.214;12.276;2022-10-28T08:38:36;16.40;;;9.38;;
48993;SDS011;34804;49.214;12.276;2022-10-28T08:47:06;21.90;;;9.35;;
48993;SDS011;34804;49.214;12.276;2022-10-28T08:49:44;15.88;;;9.48;;
48993;SDS011;34804;49.214;12.276;2022-10-28T08:52:38;19.40;;;8.35;;
48993;SDS011;34804;49.214;12.276;2022-10-28T08:55:15;20.38;;;8.80;;
48993;SDS011;34804;49.214;12.276;2022-10-28T08:57:48;19.83;;;8.13;;
48993;SDS011;34804;49.214;12.276;2022-10-28T09:00:22;16.58;;;9.15;;
48993;SDS011;34804;49.214;12.276;2022-10-28T09:03:01;17.58;;;7.90;;
48993;SDS011;34804;49.214;12.276;2022-10-28T09:05:33;15.50;;;7.88;;
48993;SDS011;34804;49.214;12.276;2022-10-28T09:08:00;15.98;;;8.20;;
48993;SDS011;34804;49.214;12.276;2022-10-28T09:10:50;13.70;;;7.63;;
48993;SDS011;34804;49.214;12.276;2022-10-28T09:13:23;16.73;;;9.43;;
48993;SDS011;34804;49.214;12.276;2022-10-28T09:16:13;16.48;;;8.25;;
48993;SDS011;34804;49.214;12.276;2022-10-28T09:18:52;17.17;;;7.13;;
48993;SDS011;34804;49.214;12.276;2022-10-28T09:21:30;13.38;;;7.40;;
48993;SDS011;34804;49.214;12.276;2022-10-28T09:24:13;13.82;;;7.10;;
48993;SDS011;34804;49.214;12.276;2022-10-28T09:31:53;17.73;;;7.30;;
48993;SDS011;34804;49.214;12.276;2022-10-28T09:34:45;18.65;;;8.40;;
48993;SDS011;34804;49.214;12.276;2022-10-28T09:37:28;16.55;;;8.38;;
48993;SDS011;34804;49.214;12.276;2022-10-28T09:42:45;21.73;;;9.15;;
48993;SDS011;34804;49.214;12.276;2022-10-28T09:45:34;14.80;;;8.38;;
48993;SDS011;34804;49.214;12.276;2022-10-28T09:48:09;14.35;;;8.32;;
48993;SDS011;34804;49.214;12.276;2022-10-28T09:50:44;14.13;;;8.35;;
48993;SDS011;34804;49.214;12.276;2022-10-28T09:53:25;16.48;;;7.88;;
48993;SDS011;34804;49.214;12.276;2022-10-28T09:56:06;17.40;;;7.72;;
48993;SDS011;34804;49.214;12.276;2022-10-28T09:58:39;15.80;;;7.30;;
48993;SDS011;34804;49.214;12.276;2022-10-28T10:01:09;14.93;;;8.07;;
48993;SDS011;34804;49.214;12.276;2022-10-28T10:03:36;10.82;;;7.03;;
48993;SDS011;34804;49.214;12.276;2022-10-28T10:06:10;12.27;;;7.38;;
48993;SDS011;34804;49.214;12.276;2022-10-28T10:08:40;16.10;;;8.10;;
48993;SDS011;34804;49.214;12.276;2022-10-28T10:13:53;13.82;;;7.20;;
48993;SDS011;34804;49.214;12.276;2022-10-28T10:16:28;10.35;;;6.20;;
48993;SDS011;34804;49.214;12.276;2022-10-28T10:19:19;14.55;;;6.90;;
48993;SDS011;34804;49.214;12.276;2022-10-28T10:21:50;13.50;;;7.15;;
48993;SDS011;34804;49.214;12.276;2022-10-28T10:27:00;17.15;;;7.75;;
48993;SDS011;34804;49.214;12.276;2022-10-28T10:29:48;15.73;;;7.80;;
48993;SDS011;34804;49.214;12.276;2022-10-28T10:34:56;12.40;;;6.40;;
48993;SDS011;34804;49.214;12.276;2022-10-28T10:37:27;11.75;;;5.55;;
48993;SDS011;34804;49.214;12.276;2022-10-28T10:42:45;7.65;;;4.85;;
48993;SDS011;34804;49.214;12.276;2022-10-28T10:45:32;11.38;;;5.30;;
48993;SDS011;34804;49.214;12.276;2022-10-28T10:48:05;8.93;;;5.65;;
48993;SDS011;34804;49.214;12.276;2022-10-28T10:50:41;7.47;;;4.28;;
48993;SDS011;34804;49.214;12.276;2022-10-28T10:53:22;7.35;;;4.25;;
48993;SDS011;34804;49.214;12.276;2022-10-28T10:55:57;8.43;;;4.35;;
48993;SDS011;34804;49.214;12.276;2022-10-28T10:58:33;9.35;;;4.78;;
48993;SDS011;34804;49.214;12.276;2022-10-28T11:01:04;12.07;;;4.15;;
48993;SDS011;34804;49.214;12.276;2022-10-28T11:03:37;8.35;;;3.75;;
48993;SDS011;34804;49.214;12.276;2022-10-28T11:06:25;8.95;;;3.75;;
48993;SDS011;34804;49.214;12.276;2022-10-28T11:08:56;10.73;;;3.75;;
48993;SDS011;34804;49.214;12.276;2022-10-28T11:12:00;9.00;;;3.78;;
48993;SDS011;34804;49.214;12.276;2022-10-28T11:14:28;7.57;;;3.60;;
48993;SDS011;34804;49.214;12.276;2022-10-28T11:16:58;8.80;;;3.28;;
48993;SDS011;34804;49.214;12.276;2022-10-28T11:19:35;11.10;;;3.53;;
48993;SDS011;34804;49.214;12.276;2022-10-28T11:28:02;8.15;;;3.25;;
48993;SDS011;34804;49.214;12.276;2022-10-28T11:30:57;7.82;;;3.40;;
48993;SDS011;34804;49.214;12.276;2022-10-28T11:33:38;7.97;;;3.83;;
48993;SDS011;34804;49.214;12.276;2022-10-28T11:36:18;11.07;;;3.77;;
48993;SDS011;34804;49.214;12.276;2022-10-28T11:39:00;10.43;;;3.67;;
48993;SDS011;34804;49.214;12.276;2022-10-28T11:44:17;6.22;;;3.00;;
48993;SDS011;34804;49.214;12.276;2022-10-28T11:52:24;8.52;;;3.10;;
48993;SDS011;34804;49.214;12.276;2022-10-28T12:03:21;9.65;;;2.72;;
48993;SDS011;34804;49.214;12.276;2022-10-28T12:16:57;5.03;;;2.30;;
48993;SDS011;34804;49.214;12.276;2022-10-28T12:19:41;7.30;;;2.50;;
48993;SDS011;34804;49.214;12.276;2022-10-28T12:22:35;6.80;;;2.20;;
48993;SDS011;34804;49.214;12.276;2022-10-28T12:25:07;6.15;;;2.20;;
48993;SDS011;34804;49.214;12.276;2022-10-28T12:27:41;7.00;;;2.35;;
48993;SDS011;34804;49.214;12.276;2022-10-28T12:30:19;7.65;;;2.00;;
48993;SDS011;34804;49.214;12.276;2022-10-28T12:32:49;5.07;;;1.70;;
48993;SDS011;34804;49.214;12.276;2022-10-28T12:44:02;4.40;;;1.83;;
48993;SDS011;34804;49.214;12.276;2022-10-28T12:52:12;5.82;;;1.83;;
48993;SDS011;34804;49.214;12.276;2022-10-28T12:57:27;5.32;;;1.60;;
48993;SDS011;34804;49.214;12.276;2022-10-28T13:00:00;7.20;;;2.10;;
48993;SDS011;34804;49.214;12.276;2022-10-28T13:02:39;6.35;;;2.22;;
48993;SDS011;34804;49.214;12.276;2022-10-28T13:08:25;6.65;;;2.15;;
48993;SDS011;34804;49.214;12.276;2022-10-28T13:19:37;6.68;;;1.80;;
48993;SDS011;34804;49.214;12.276;2022-10-28T13:25:07;6.55;;;1.88;;
48993;SDS011;34804;49.214;12.276;2022-10-28T13:27:46;4.55;;;1.48;;
48993;SDS011;34804;49.214;12.276;2022-10-28T13:32:58;4.68;;;1.80;;
48993;SDS011;34804;49.214;12.276;2022-10-28T13:35:34;7.03;;;1.77;;
48993;SDS011;34804;49.214;12.276;2022-10-28T13:38:02;6.05;;;1.70;;
48993;SDS011;34804;49.214;12.276;2022-10-28T13:43:03;6.07;;;1.98;;
48993;SDS011;34804;49.214;12.276;2022-10-28T13:45:49;5.32;;;1.65;;
48993;SDS011;34804;49.214;12.276;2022-10-28T13:53:37;7.05;;;1.73;;
48993;SDS011;34804;49.214;12.276;2022-10-28T13:56:13;5.97;;;1.70;;
48993;SDS011;34804;49.214;12.276;2022-10-28T13:58:51;7.65;;;1.67;;
48993;SDS011;34804;49.214;12.276;2022-10-28T14:04:20;5.78;;;1.80;;
48993;SDS011;34804;49.214;12.276;2022-10-28T14:09:35;6.53;;;1.70;;
48993;SDS011;34804;49.214;12.276;2022-10-28T14:12:13;7.93;;;1.83;;
48993;SDS011;34804;49.214;12.276;2022-10-28T14:14:51;4.82;;;1.70;;
48993;SDS011;34804;49.214;12.276;2022-10-28T14:17:47;8.15;;;1.60;;
48993;SDS011;34804;49.214;12.276;2022-10-28T14:20:27;5.22;;;1.70;;
48993;SDS011;34804;49.214;12.276;2022-10-28T14:33:40;5.75;;;2.10;;
48993;SDS011;34804;49.214;12.276;2022-10-28T14:36:33;5.55;;;1.80;;
48993;SDS011;34804;49.214;12.276;2022-10-28T14:41:55;4.13;;;1.60;;
48993;SDS011;34804;49.214;12.276;2022-10-28T14:47:30;5.75;;;1.98;;
48993;SDS011;34804;49.214;12.276;2022-10-28T14:50:22;4.82;;;1.73;;
48993;SDS011;34804;49.214;12.276;2022-10-28T14:52:53;6.72;;;1.67;;
48993;SDS011;34804;49.214;12.276;2022-10-28T14:55:26;8.82;;;2.08;;
48993;SDS011;34804;49.214;12.276;2022-10-28T15:00:52;5.43;;;1.92;;
48993;SDS011;34804;49.214;12.276;2022-10-28T15:03:29;4.57;;;1.92;;
48993;SDS011;34804;49.214;12.276;2022-10-28T15:06:00;9.60;;;2.10;;
48993;SDS011;34804;49.214;12.276;2022-10-28T15:08:42;11.45;;;2.28;;
48993;SDS011;34804;49.214;12.276;2022-10-28T15:11:09;6.47;;;2.38;;
48993;SDS011;34804;49.214;12.276;2022-10-28T15:13:35;6.13;;;2.30;;
48993;SDS011;34804;49.214;12.276;2022-10-28T15:16:02;8.23;;;2.55;;
48993;SDS011;34804;49.214;12.276;2022-10-28T15:18:30;7.72;;;2.55;;
48993;SDS011;34804;49.214;12.276;2022-10-28T15:21:07;9.05;;;1.98;;
48993;SDS011;34804;49.214;12.276;2022-10-28T15:23:35;8.13;;;2.03;;
48993;SDS011;34804;49.214;12.276;2022-10-28T15:26:11;7.05;;;1.90;;
48993;SDS011;34804;49.214;12.276;2022-10-28T15:28:40;6.25;;;1.73;;
48993;SDS011;34804;49.214;12.276;2022-10-28T15:31:07;7.55;;;2.60;;
48993;SDS011;34804;49.214;12.276;2022-10-28T15:33:38;6.65;;;1.92;;
48993;SDS011;34804;49.214;12.276;2022-10-28T15:36:14;3.72;;;1.73;;
48993;SDS011;34804;49.214;12.276;2022-10-28T15:43:59;7.18;;;2.47;;
48993;SDS011;34804;49.214;12.276;2022-10-28T15:46:27;8.48;;;2.25;;
48993;SDS011;34804;49.214;12.276;2022-10-28T15:48:56;8.93;;;2.67;;
48993;SDS011;34804;49.214;12.276;2022-10-28T15:51:24;8.00;;;2.80;;
48993;SDS011;34804;49.214;12.276;2022-10-28T15:53:52;6.00;;;2.45;;
48993;SDS011;34804;49.214;12.276;2022-10-28T15:56:34;5.53;;;2.40;;
48993;SDS011;34804;49.214;12.276;2022-10-28T15:59:20;10.85;;;6.25;;
48993;SDS011;34804;49.214;12.276;2022-10-28T16:01:48;16.98;;;9.13;;
48993;SDS011;34804;49.214;12.276;2022-10-28T16:06:52;12.38;;;6.22;;
48993;SDS011;34804;49.214;12.276;2022-10-28T16:09:27;12.27;;;5.72;;
48993;SDS011;34804;49.214;12.276;2022-10-28T16:12:00;8.57;;;4.25;;
48993;SDS011;34804;49.214;12.276;2022-10-28T16:14:31;9.65;;;3.88;;
48993;SDS011;34804;49.214;12.276;2022-10-28T16:17:02;8.15;;;3.47;;
48993;SDS011;34804;49.214;12.276;2022-10-28T16:19:39;8.77;;;3.65;;
48993;SDS011;34804;49.214;12.276;2022-10-28T16:24:51;7.13;;;3.58;;
48993;SDS011;34804;49.214;12.276;2022-10-28T16:27:22;10.60;;;3.95;;
48993;SDS011;34804;49.214;12.276;2022-10-28T16:29:53;7.32;;;3.63;;
48993;SDS011;34804;49.214;12.276;2022-10-28T16:32:42;11.85;;;4.43;;
48993;SDS011;34804;49.214;12.276;2022-10-28T16:35:20;12.23;;;5.60;;
48993;SDS011;34804;49.214;12.276;2022-10-28T16:37:48;13.38;;;5.93;;
48993;SDS011;34804;49.214;12.276;2022-10-28T16:40:21;12.70;;;5.38;;
48993;SDS011;34804;49.214;12.276;2022-10-28T16:43:18;8.75;;;3.40;;
48993;SDS011;34804;49.214;12.276;2022-10-28T16:45:47;9.35;;;2.78;;
48993;SDS011;34804;49.214;12.276;2022-10-28T16:48:16;12.18;;;4.15;;
48993;SDS011;34804;49.214;12.276;2022-10-28T16:50:47;9.32;;;4.30;;
48993;SDS011;34804;49.214;12.276;2022-10-28T16:53:19;12.45;;;5.80;;
48993;SDS011;34804;49.214;12.276;2022-10-28T16:55:46;12.70;;;5.65;;
48993;SDS011;34804;49.214;12.276;2022-10-28T16:58:13;10.85;;;4.75;;
48993;SDS011;34804;49.214;12.276;2022-10-28T17:00:41;11.50;;;3.28;;
48993;SDS011;34804;49.214;12.276;2022-10-28T17:03:12;9.02;;;2.35;;
48993;SDS011;34804;49.214;12.276;2022-10-28T17:08:09;12.10;;;2.83;;
48993;SDS011;34804;49.214;12.276;2022-10-28T17:10:37;7.43;;;2.85;;
48993;SDS011;34804;49.214;12.276;2022-10-28T17:13:09;7.65;;;3.28;;
48993;SDS011;34804;49.214;12.276;2022-10-28T17:15:40;13.05;;;4.93;;
48993;SDS011;34804;49.214;12.276;2022-10-28T17:18:08;7.25;;;2.95;;
48993;SDS011;34804;49.214;12.276;2022-10-28T17:20:36;7.53;;;2.78;;
48993;SDS011;34804;49.214;12.276;2022-10-28T17:23:03;9.65;;;2.80;;
48993;SDS011;34804;49.214;12.276;2022-10-28T17:25:30;7.90;;;2.72;;
48993;SDS011;34804;49.214;12.276;2022-10-28T17:27:57;8.00;;;3.63;;
48993;SDS011;34804;49.214;12.276;2022-10-28T17:30:24;11.65;;;3.83;;
48993;SDS011;34804;49.214;12.276;2022-10-28T17:32:52;11.05;;;3.47;;
48993;SDS011;34804;49.214;12.276;2022-10-28T17:35:20;9.02;;;3.08;;
48993;SDS011;34804;49.214;12.276;2022-10-28T17:37:47;6.93;;;2.60;;
48993;SDS011;34804;49.214;12.276;2022-10-28T17:40:14;11.93;;;2.85;;
48993;SDS011;34804;49.214;12.276;2022-10-28T17:42:41;8.32;;;2.63;;
48993;SDS011;34804;49.214;12.276;2022-10-28T17:45:08;6.57;;;3.08;;
48993;SDS011;34804;49.214;12.276;2022-10-28T17:47:36;7.70;;;3.03;;
48993;SDS011;34804;49.214;12.276;2022-10-28T17:50:03;10.45;;;2.95;;
48993;SDS011;34804;49.214;12.276;2022-10-28T17:52:30;8.38;;;3.35;;
48993;SDS011;34804;49.214;12.276;2022-10-28T17:55:03;7.65;;;3.90;;
48993;SDS011;34804;49.214;12.276;2022-10-28T17:57:30;14.93;;;5.10;;
48993;SDS011;34804;49.214;12.276;2022-10-28T17:59:57;11.35;;;5.57;;
48993;SDS011;34804;49.214;12.276;2022-10-28T18:02:24;11.77;;;6.30;;